Time;durP1;ratioP1;P1;durP2;ratioP2;P2;SDS_P1;SDS_P2;PMS_P1;PMS_P2;Temp;Humidity;BMP_temperature;BMP_pressure;BME280_temperature;BME280_humidity;BME280_pressure;Samples;Min_cycle;Max_cycle;Signal;HPM_P1;HPM_P2
2021/01/22 00:01:19;;;;;;;28.47;17.25;;;;;;;4.99;66.24;98969.44;125561;1127;22441;-80
2021/01/22 00:03:47;;;;;;;26.25;15.83;;;;;;;5.04;66.21;98967.16;125541;1128;22450;-80
2021/01/22 00:06:16;;;;;;;22.37;14.50;;;;;;;5.07;66.67;98969.45;125398;1126;24590;-80
2021/01/22 00:08:44;;;;;;;24.13;15.57;;;;;;;5.09;66.28;98966.65;125666;1127;22450;-80
2021/01/22 00:15:32;;;;;;;22.10;13.70;;;;;;;5.05;66.57;98966.17;125402;1131;22564;-79
2021/01/22 00:18:00;;;;;;;21.20;13.93;;;;;;;5.06;66.58;98969.59;125394;1129;22462;-79
2021/01/22 00:20:29;;;;;;;23.27;13.68;;;;;;;5.07;66.46;98969.45;125375;1126;24608;-79
2021/01/22 00:22:57;;;;;;;19.70;12.33;;;;;;;5.10;66.12;98965.69;125435;1127;24612;-79
2021/01/22 00:25:25;;;;;;;20.40;12.70;;;;;;;5.13;66.08;98957.47;125068;1129;22486;-79
2021/01/22 00:27:53;;;;;;;18.75;12.23;;;;;;;5.16;66.60;98957.98;125066;1126;24589;-79
2021/01/22 00:30:21;;;;;;;21.48;12.05;;;;;;;5.19;66.07;98949.77;125354;1128;24383;-78
2021/01/22 00:32:49;;;;;;;22.50;13.00;;;;;;;5.20;66.50;98958.47;125046;1127;22450;-79
2021/01/22 00:35:17;;;;;;;19.40;12.18;;;;;;;5.21;65.93;98949.62;125096;1130;22444;-80
2021/01/22 00:37:45;;;;;;;20.70;12.45;;;;;;;5.20;66.02;98953.23;125462;1127;22442;-79
2021/01/22 00:40:14;;;;;;;16.40;11.35;;;;;;;5.21;65.76;98952.23;125668;1129;22462;-79
2021/01/22 00:42:42;;;;;;;21.93;12.47;;;;;;;5.25;66.53;98950.09;125383;1130;22445;-79
2021/01/22 00:45:11;;;;;;;19.80;12.30;;;;;;;5.26;65.81;98960.39;125472;1129;23310;-78
2021/01/22 00:47:40;;;;;;;18.12;11.80;;;;;;;5.28;65.91;98949.77;125390;1129;23668;-79
2021/01/22 00:50:09;;;;;;;15.18;10.40;;;;;;;5.29;65.80;98936.49;125635;1130;22440;-79
2021/01/22 00:52:37;;;;;;;19.80;13.53;;;;;;;5.29;66.34;98936.49;125612;1126;22545;-79
2021/01/22 00:55:07;;;;;;;32.23;17.10;;;;;;;5.29;65.58;98917.34;125643;1126;24361;-80
2021/01/22 00:57:54;;;;;;;22.93;13.00;;;;;;;5.28;65.49;98913.11;125383;1126;22453;-80
2021/01/22 01:00:25;;;;;;;22.05;12.30;;;;;;;5.27;65.66;98911.48;125371;1127;22434;-80
2021/01/22 01:03:01;;;;;;;20.68;12.90;;;;;;;5.29;65.82;98912.11;125605;1130;22459;-80
2021/01/22 01:05:30;;;;;;;14.38;10.38;;;;;;;5.32;65.98;98919.63;125627;1127;22441;-81
2021/01/22 01:08:00;;;;;;;18.27;11.00;;;;;;;5.33;66.45;98909.01;125320;1127;22449;-80
2021/01/22 01:10:42;;;;;;;21.57;11.90;;;;;;;5.34;65.94;98909.81;125369;1127;22435;-80
2021/01/22 01:13:46;;;;;;;23.50;12.13;;;;;;;5.31;65.80;98886.59;125154;1133;22576;-78
2021/01/22 01:16:24;;;;;;;23.55;11.35;;;;;;;5.29;66.16;98876.27;124932;1133;22451;-81
2021/01/22 01:18:52;;;;;;;17.98;10.48;;;;;;;5.31;66.23;98870.88;124927;1129;22450;-80
2021/01/22 01:21:20;;;;;;;19.07;11.33;;;;;;;5.33;66.68;98869.73;124980;1129;22441;-79
2021/01/22 01:23:48;;;;;;;19.12;10.05;;;;;;;5.35;66.51;98867.73;124936;1130;24620;-79
2021/01/22 01:26:17;;;;;;;14.25;9.73;;;;;;;5.38;66.19;98882.30;125198;1133;23872;-80
2021/01/22 01:28:45;;;;;;;16.02;9.00;;;;;;;5.41;66.70;98869.68;124953;1130;25011;-79
2021/01/22 01:31:13;;;;;;;13.75;9.28;;;;;;;5.43;66.02;98861.64;124924;1129;24281;-79
2021/01/22 01:33:41;;;;;;;11.97;8.53;;;;;;;5.41;66.46;98856.59;124907;1130;22926;-79
2021/01/22 01:36:10;;;;;;;13.53;8.65;;;;;;;5.37;66.31;98857.11;124883;1130;22447;-79
2021/01/22 01:38:39;;;;;;;14.00;8.45;;;;;;;5.35;66.54;98836.31;124960;1130;22468;-79
2021/01/22 01:41:07;;;;;;;13.90;8.88;;;;;;;5.34;66.12;98846.97;124941;1130;22460;-79
2021/01/22 01:43:35;;;;;;;13.97;8.27;;;;;;;5.36;66.28;98839.74;124925;1130;22512;-79
2021/01/22 01:46:03;;;;;;;17.00;7.75;;;;;;;5.35;66.47;98835.50;124933;1130;22456;-79
2021/01/22 01:48:31;;;;;;;13.03;8.55;;;;;;;5.36;66.83;98826.66;125220;1127;22596;-79
2021/01/22 01:51:00;;;;;;;17.80;10.28;;;;;;;5.35;66.39;98810.13;125385;1127;22451;-79
2021/01/22 01:53:28;;;;;;;19.92;10.35;;;;;;;5.36;66.54;98816.17;125382;1126;22442;-79
2021/01/22 01:55:56;;;;;;;12.37;9.08;;;;;;;5.37;66.81;98813.41;125340;1127;22590;-79
2021/01/22 01:58:25;;;;;;;15.00;10.78;;;;;;;5.39;66.43;98813.22;125348;1127;22444;-79
2021/01/22 02:00:54;;;;;;;14.73;10.08;;;;;;;5.39;66.27;98811.41;125385;1127;25042;-79
2021/01/22 02:03:23;;;;;;;13.58;9.30;;;;;;;5.45;66.56;98809.91;125358;1126;22457;-79
2021/01/22 02:05:51;;;;;;;17.60;9.30;;;;;;;5.48;66.38;98806.14;125413;1127;24236;-81
2021/01/22 02:08:20;;;;;;;16.00;9.18;;;;;;;5.52;67.03;98816.09;125623;1127;24635;-81
2021/01/22 02:10:48;;;;;;;14.75;10.18;;;;;;;5.54;66.71;98808.08;125598;1130;22492;-80
2021/01/22 02:13:17;;;;;;;19.05;9.13;;;;;;;5.55;66.38;98809.70;125314;1129;22462;-80
2021/01/22 02:15:46;;;;;;;16.62;10.05;;;;;;;5.55;66.92;98807.89;125346;1128;22441;-79
2021/01/22 02:18:15;;;;;;;17.02;11.12;;;;;;;5.53;66.03;98807.27;125441;1127;22406;-82
2021/01/22 02:20:55;;;;;;;15.72;10.95;;;;;;;5.54;66.24;98800.22;125682;1127;24836;-83
2021/01/22 02:23:26;;;;;;;18.87;10.17;;;;;;;5.56;66.41;98798.22;125672;1127;22443;-83
2021/01/22 02:26:12;;;;;;;15.20;10.08;;;;;;;5.55;66.22;98792.17;125620;1127;22431;-81
2021/01/22 02:28:43;;;;;;;15.25;9.90;;;;;;;5.54;66.18;98790.55;125564;1126;22449;-81
2021/01/22 02:31:14;;;;;;;15.38;10.00;;;;;;;5.52;66.35;98779.42;125393;1126;24300;-79
2021/01/22 02:33:47;;;;;;;16.57;10.93;;;;;;;5.49;66.60;98779.77;125386;1128;22459;-79
2021/01/22 02:36:19;;;;;;;17.35;10.30;;;;;;;5.45;66.58;98783.72;125641;1129;22444;-80
2021/01/22 02:38:50;;;;;;;17.52;10.00;;;;;;;5.40;66.87;98781.63;125631;1130;22439;-79
2021/01/22 02:41:20;;;;;;;21.17;12.82;;;;;;;5.37;66.56;98783.78;125614;1129;22456;-80
2021/01/22 02:43:52;;;;;;;13.57;10.00;;;;;;;5.37;66.62;98786.41;125627;1129;22445;-80
2021/01/22 02:46:20;;;;;;;16.63;10.97;;;;;;;5.39;66.84;98779.17;125639;1130;22453;-81
2021/01/22 02:48:50;;;;;;;16.95;11.33;;;;;;;5.38;67.01;98778.36;125647;1127;22341;-80
2021/01/22 02:51:18;;;;;;;17.92;11.08;;;;;;;5.35;66.59;98777.89;125618;1130;22459;-81
2021/01/22 02:53:46;;;;;;;17.48;10.75;;;;;;;5.32;67.31;98770.38;125683;1127;22557;-80
2021/01/22 02:56:41;;;;;;;15.88;9.15;;;;;;;5.30;67.18;98767.95;125413;1126;24587;-80
2021/01/22 02:59:11;;;;;;;13.38;9.08;;;;;;;5.27;67.11;98754.39;125336;1130;22437;-81
2021/01/22 03:02:10;;;;;;;15.28;9.53;;;;;;;5.30;67.33;98740.92;125396;1127;23717;-81
2021/01/22 03:04:41;;;;;;;13.55;9.40;;;;;;;5.32;67.87;98738.96;125374;1127;22549;-81
2021/01/22 03:07:23;;;;;;;18.27;10.60;;;;;;;5.34;67.43;98737.80;125614;1130;22473;-81
2021/01/22 03:09:58;;;;;;;18.12;10.00;;;;;;;5.35;67.21;98731.57;125716;1126;24645;-82
2021/01/22 03:12:30;;;;;;;17.77;10.73;;;;;;;5.33;68.00;98737.97;125616;1129;23483;-82
2021/01/22 03:14:59;;;;;;;17.17;9.20;;;;;;;5.35;68.20;98734.19;125620;1126;24590;-81
2021/01/22 03:17:27;;;;;;;17.15;10.63;;;;;;;5.37;67.75;98734.84;125659;1127;22456;-81
2021/01/22 03:19:56;;;;;;;16.73;10.13;;;;;;;5.40;68.23;98724.02;125592;1126;25047;-81
2021/01/22 03:22:24;;;;;;;18.23;10.47;;;;;;;5.45;68.19;98720.06;125604;1128;22454;-81
2021/01/22 03:24:52;;;;;;;17.80;11.18;;;;;;;5.45;67.92;98723.48;125576;1127;24879;-81
2021/01/22 03:27:20;;;;;;;19.85;11.97;;;;;;;5.48;68.48;98717.91;125381;1126;24558;-80
2021/01/22 03:29:49;;;;;;;18.27;12.03;;;;;;;5.49;68.32;98716.91;125375;1127;24587;-80
2021/01/22 03:32:17;;;;;;;15.68;11.18;;;;;;;5.48;67.80;98715.28;125391;1128;22407;-80
2021/01/22 03:34:45;;;;;;;18.15;11.83;;;;;;;5.48;68.18;98711.86;125378;1130;22451;-78
2021/01/22 03:37:13;;;;;;;19.50;13.50;;;;;;;5.54;68.71;98713.78;125358;1127;24234;-77
2021/01/22 03:39:41;;;;;;;20.57;12.47;;;;;;;5.58;68.49;98730.77;125362;1130;22460;-78
2021/01/22 03:42:09;;;;;;;19.27;12.37;;;;;;;5.59;68.64;98730.58;125347;1127;22440;-77
2021/01/22 03:44:37;;;;;;;16.73;11.63;;;;;;;5.58;68.66;98731.58;125346;1129;23697;-77
2021/01/22 03:47:06;;;;;;;17.60;11.33;;;;;;;5.58;68.53;98726.34;125429;1127;22437;-77
2021/01/22 03:49:34;;;;;;;17.25;11.97;;;;;;;5.59;68.41;98722.72;125347;1126;22444;-77
2021/01/22 03:52:03;;;;;;;17.83;11.73;;;;;;;5.59;68.72;98719.29;125419;1127;23202;-77
2021/01/22 03:54:31;;;;;;;18.07;11.45;;;;;;;5.60;68.51;98713.89;125442;1127;22437;-79
2021/01/22 03:56:59;;;;;;;21.02;12.50;;;;;;;5.65;68.68;98710.73;125423;1127;24565;-78
2021/01/22 03:59:27;;;;;;;17.20;11.57;;;;;;;5.65;68.05;98701.06;125422;1127;22460;-77
2021/01/22 04:01:55;;;;;;;16.67;11.85;;;;;;;5.63;68.63;98703.06;125346;1127;22558;-78
2021/01/22 04:04:23;;;;;;;19.42;13.98;;;;;;;5.63;68.21;98703.06;125313;1129;22459;-78
2021/01/22 04:07:02;;;;;;;22.58;13.72;;;;;;;5.61;68.18;98707.66;125341;1127;22462;-78
2021/01/22 04:09:30;;;;;;;27.20;16.25;;;;;;;5.60;68.16;98706.03;125366;1129;23373;-79
2021/01/22 04:11:58;;;;;;;24.37;16.27;;;;;;;5.62;68.40;98706.66;125452;1126;22457;-78
2021/01/22 04:14:26;;;;;;;24.10;16.57;;;;;;;5.66;68.76;98702.72;125384;1127;22457;-78
2021/01/22 04:16:56;;;;;;;22.20;16.57;;;;;;;5.69;68.29;98703.33;125405;1127;24581;-78
2021/01/22 04:19:25;;;;;;;24.80;16.37;;;;;;;5.67;68.85;98693.05;125381;1130;22453;-79
2021/01/22 04:21:56;;;;;;;22.95;16.75;;;;;;;5.66;68.13;98692.23;125356;1127;24585;-78
2021/01/22 04:24:25;;;;;;;24.80;17.62;;;;;;;5.64;68.65;98703.88;125065;1127;22450;-79
2021/01/22 04:26:53;;;;;;;29.57;18.20;;;;;;;5.64;68.82;98698.64;125330;1127;25014;-77
2021/01/22 04:29:21;;;;;;;21.53;14.57;;;;;;;5.66;68.48;98691.39;125371;1130;22451;-78
2021/01/22 04:31:49;;;;;;;20.48;14.03;;;;;;;5.70;68.97;98695.31;125379;1127;22451;-77
2021/01/22 04:34:18;;;;;;;25.05;14.53;;;;;;;5.75;68.29;98697.39;125404;1128;22514;-77
2021/01/22 04:36:46;;;;;;;18.93;12.87;;;;;;;5.73;68.35;98699.36;125397;1127;22454;-77
2021/01/22 04:39:14;;;;;;;23.62;13.75;;;;;;;5.71;68.47;98683.02;125332;1127;24552;-77
2021/01/22 04:41:42;;;;;;;19.30;12.80;;;;;;;5.68;68.26;98686.80;125019;1127;24435;-77
2021/01/22 04:44:10;;;;;;;28.55;13.50;;;;;;;5.64;68.56;98677.67;125013;1129;22548;-77
2021/01/22 04:46:40;;;;;;;18.75;12.18;;;;;;;5.64;68.95;98668.01;125327;1127;22443;-77
2021/01/22 04:49:10;;;;;;;17.45;11.70;;;;;;;5.64;68.72;98678.48;125236;1129;22500;-77
2021/01/22 04:51:41;;;;;;;21.45;12.35;;;;;;;5.66;69.05;98665.20;125457;1130;22548;-78
2021/01/22 04:54:16;;;;;;;18.30;11.83;;;;;;;5.68;68.48;98657.17;125374;1130;22443;-78
2021/01/22 04:56:47;;;;;;;22.25;14.25;;;;;;;5.65;68.23;98648.67;125246;1130;22441;-79
2021/01/22 04:59:22;;;;;;;19.57;12.75;;;;;;;5.64;68.34;98641.81;125615;1129;22448;-79
2021/01/22 05:01:52;;;;;;;18.07;12.18;;;;;;;5.66;69.22;98633.76;125289;1127;24577;-80
2021/01/22 05:04:23;;;;;;;26.15;15.72;;;;;;;5.70;68.51;98621.12;125035;1130;23390;-80
2021/01/22 05:06:51;;;;;;;166.95;80.62;;;;;;;5.69;69.06;98601.97;125381;1128;22639;-79
2021/01/22 05:09:20;;;;;;;29.12;16.25;;;;;;;5.69;69.16;98595.92;125575;1127;22486;-79
2021/01/22 05:11:54;;;;;;;30.00;14.95;;;;;;;5.66;69.07;98594.47;125589;1128;22437;-79
2021/01/22 05:14:23;;;;;;;20.00;11.12;;;;;;;5.66;68.63;98613.64;125332;1127;22453;-79
2021/01/22 05:17:10;;;;;;;15.40;10.93;;;;;;;5.68;68.52;98626.55;125374;1127;24243;-79
2021/01/22 05:19:43;;;;;;;17.92;12.18;;;;;;;5.69;69.15;98638.64;125467;1130;22441;-79
2021/01/22 05:22:17;;;;;;;18.15;13.35;;;;;;;5.73;68.73;98618.98;125408;1127;24300;-80
2021/01/22 05:24:46;;;;;;;18.17;11.70;;;;;;;5.72;68.68;98606.85;125405;1127;24559;-80
2021/01/22 05:27:15;;;;;;;18.98;14.00;;;;;;;5.72;69.03;98596.38;125388;1127;24374;-81
2021/01/22 05:29:44;;;;;;;21.12;11.97;;;;;;;5.73;68.85;98597.18;125473;1127;22444;-81
2021/01/22 05:32:31;;;;;;;19.45;10.80;;;;;;;5.73;68.85;98602.42;125373;1127;22535;-80
2021/01/22 05:35:01;;;;;;;19.55;11.05;;;;;;;5.79;69.38;98596.47;125423;1127;22538;-80
2021/01/22 05:37:29;;;;;;;21.25;12.43;;;;;;;5.82;69.48;98604.78;125418;1127;22494;-80
2021/01/22 05:40:10;;;;;;;23.85;13.32;;;;;;;5.86;68.82;98599.98;125456;1126;22436;-81
2021/01/22 05:43:05;;;;;;;25.95;14.03;;;;;;;5.88;69.27;98598.02;125423;1127;22449;-81
2021/01/22 05:45:45;;;;;;;17.90;11.03;;;;;;;5.88;68.50;98590.96;125443;1130;22459;-81
2021/01/22 05:48:25;;;;;;;18.23;10.63;;;;;;;5.88;68.61;98592.77;125464;1126;22488;-81
2021/01/22 05:50:59;;;;;;;18.77;10.20;;;;;;;5.90;69.08;98593.42;125421;1127;22466;-80
2021/01/22 05:53:29;;;;;;;20.20;11.73;;;;;;;5.94;68.91;98599.95;125061;1130;22544;-80
2021/01/22 05:56:08;;;;;;;21.23;11.65;;;;;;;5.97;69.22;98596.97;125429;1126;22459;-80
2021/01/22 05:58:39;;;;;;;20.02;10.75;;;;;;;6.00;69.24;98587.91;125578;1126;22454;-83
2021/01/22 06:01:12;;;;;;;19.02;10.88;;;;;;;5.99;69.05;98589.72;125873;1126;22424;-83
2021/01/22 06:03:49;;;;;;;33.60;19.90;;;;;;;6.00;69.11;98588.75;125893;1127;22457;-82
2021/01/22 06:06:20;;;;;;;203.95;112.20;;;;;;;6.03;68.82;98592.79;125845;1128;22456;-83
2021/01/22 06:08:57;;;;;;;167.30;93.30;;;;;;;6.06;68.93;98581.95;125526;1127;22467;-80
2021/01/22 06:11:28;;;;;;;200.35;111.83;;;;;;;6.09;68.55;98582.39;125452;1127;22811;-80
2021/01/22 06:13:59;;;;;;;54.05;36.95;;;;;;;6.07;68.48;98592.27;125449;1127;22542;-80
2021/01/22 06:16:29;;;;;;;46.58;24.77;;;;;;;6.07;69.10;98594.89;125411;1129;22453;-80
2021/01/22 06:19:03;;;;;;;56.20;27.58;;;;;;;6.05;68.56;98573.27;125404;1126;22579;-80
2021/01/22 06:21:39;;;;;;;42.75;19.62;;;;;;;6.07;68.72;98584.40;125349;1127;22442;-80
2021/01/22 06:24:08;;;;;;;27.50;13.97;;;;;;;6.10;69.29;98577.98;125464;1127;22502;-80
2021/01/22 06:26:39;;;;;;;34.20;17.98;;;;;;;6.10;68.81;98565.69;125522;1128;22459;-80
2021/01/22 06:29:10;;;;;;;37.87;17.60;;;;;;;6.09;68.93;98560.61;125452;1126;22437;-80
2021/01/22 06:31:38;;;;;;;28.83;16.60;;;;;;;6.09;69.18;98550.12;125777;1128;23783;-81
2021/01/22 06:34:09;;;;;;;35.60;18.42;;;;;;;6.10;68.77;98542.09;125401;1126;22463;-81
2021/01/22 06:36:42;;;;;;;33.80;16.17;;;;;;;6.14;68.69;98558.27;125395;1127;22448;-81
2021/01/22 06:39:12;;;;;;;26.80;15.05;;;;;;;6.19;69.21;98549.84;125413;1127;22458;-80
2021/01/22 06:41:41;;;;;;;22.47;13.13;;;;;;;6.22;68.83;98554.72;125082;1129;22497;-76
2021/01/22 06:44:10;;;;;;;81.02;52.98;;;;;;;6.24;69.12;98558.80;125312;1126;24558;-76
2021/01/22 06:46:40;;;;;;;66.70;40.73;;;;;;;6.26;69.02;98546.29;125417;1127;22443;-80
2021/01/22 06:49:09;;;;;;;53.15;26.60;;;;;;;6.30;69.31;98539.70;125401;1129;22445;-78
2021/01/22 06:51:37;;;;;;;41.68;20.90;;;;;;;6.35;69.08;98537.33;125353;1127;24307;-76
2021/01/22 06:54:18;;;;;;;35.45;18.85;;;;;;;6.39;69.18;98527.28;125349;1127;22508;-78
2021/01/22 06:56:47;;;;;;;30.57;15.20;;;;;;;6.42;68.68;98529.53;125350;1130;22498;-78
2021/01/22 06:59:22;;;;;;;23.98;13.53;;;;;;;6.44;68.87;98535.41;125366;1128;22471;-77
2021/01/22 07:01:52;;;;;;;22.82;12.60;;;;;;;6.47;68.83;98545.54;125368;1129;22488;-77
2021/01/22 07:04:33;;;;;;;41.73;24.77;;;;;;;6.49;68.96;98534.84;125361;1126;24572;-79
2021/01/22 07:07:04;;;;;;;22.17;12.85;;;;;;;6.51;68.75;98525.80;125418;1127;23228;-79
2021/01/22 07:09:42;;;;;;;27.93;14.30;;;;;;;6.56;68.83;98531.31;125320;1127;22518;-78
2021/01/22 07:12:13;;;;;;;22.87;11.93;;;;;;;6.58;68.43;98544.23;125380;1127;22500;-78
2021/01/22 07:14:46;;;;;;;27.77;14.30;;;;;;;6.59;68.26;98532.73;125421;1127;22463;-79
2021/01/22 07:17:28;;;;;;;19.27;10.18;;;;;;;6.60;68.44;98529.94;125397;1127;22448;-77
2021/01/22 07:20:05;;;;;;;21.00;11.85;;;;;;;6.60;68.34;98531.75;125429;1127;22443;-78
2021/01/22 07:22:48;;;;;;;19.42;11.15;;;;;;;6.64;68.71;98534.81;125403;1129;22545;-78
2021/01/22 07:25:31;;;;;;;23.73;14.55;;;;;;;6.64;68.43;98533.00;125595;1127;24562;-78
2021/01/22 07:28:12;;;;;;;25.08;13.95;;;;;;;6.65;68.37;98533.80;125600;1130;22441;-84
2021/01/22 07:30:41;;;;;;;24.57;14.40;;;;;;;6.65;68.46;98531.18;125582;1127;22590;-80
2021/01/22 07:33:38;;;;;;;36.17;17.35;;;;;;;6.62;68.44;98550.72;125396;1129;22441;-80
2021/01/22 07:36:14;;;;;;;29.12;17.17;;;;;;;6.63;68.58;98570.73;125391;1127;23006;-79
2021/01/22 07:38:43;;;;;;;26.30;16.00;;;;;;;6.65;68.36;98562.66;125432;1127;22436;-79
2021/01/22 07:41:11;;;;;;;31.37;22.00;;;;;;;6.65;68.11;98545.11;125120;1129;22547;-79
2021/01/22 07:43:40;;;;;;;34.08;21.80;;;;;;;6.66;68.18;98546.72;125290;1129;22459;-78
2021/01/22 07:46:13;;;;;;;29.05;21.42;;;;;;;6.67;68.04;98534.44;125370;1127;22460;-79
2021/01/22 07:48:41;;;;;;;32.38;19.52;;;;;;;6.64;68.10;98540.87;125299;1129;23158;-78
2021/01/22 07:51:39;;;;;;;35.17;22.73;;;;;;;6.63;68.38;98543.66;125053;1129;22545;-79
2021/01/22 07:54:08;;;;;;;35.60;22.90;;;;;;;6.66;68.69;98554.59;125401;1127;24265;-78
2021/01/22 07:56:42;;;;;;;27.95;19.80;;;;;;;6.70;68.44;98542.75;125368;1127;22503;-79
2021/01/22 07:59:12;;;;;;;24.27;15.58;;;;;;;6.75;68.39;98544.80;125405;1127;22448;-79
2021/01/22 08:01:41;;;;;;;28.90;16.40;;;;;;;6.77;68.60;98548.06;125022;1130;22444;-80
2021/01/22 08:04:10;;;;;;;37.65;25.10;;;;;;;6.78;68.62;98545.23;125381;1127;22444;-80
2021/01/22 08:06:50;;;;;;;34.27;22.25;;;;;;;6.82;68.23;98548.30;125453;1130;22547;-79
2021/01/22 08:09:18;;;;;;;33.83;20.55;;;;;;;6.86;68.54;98559.23;125434;1126;22457;-79
2021/01/22 08:11:48;;;;;;;30.68;20.32;;;;;;;6.93;68.64;98554.84;125391;1126;22462;-79
2021/01/22 08:14:29;;;;;;;26.37;13.97;;;;;;;6.97;68.29;98545.63;125495;1129;22567;-79
2021/01/22 08:17:00;;;;;;;31.27;14.65;;;;;;;6.98;68.05;98519.16;125348;1130;22449;-79
2021/01/22 08:19:33;;;;;;;26.03;15.57;;;;;;;7.03;67.93;98515.96;125399;1127;24562;-79
2021/01/22 08:22:02;;;;;;;31.35;17.40;;;;;;;7.06;67.96;98523.46;125420;1127;22465;-79
2021/01/22 08:24:30;;;;;;;29.55;18.25;;;;;;;7.09;68.13;98525.70;125351;1127;22586;-79
2021/01/22 08:27:04;;;;;;;23.92;15.43;;;;;;;7.14;67.91;98531.22;125383;1128;22436;-79
2021/01/22 08:29:35;;;;;;;28.47;18.10;;;;;;;7.25;67.89;98535.13;125360;1130;22463;-79
2021/01/22 08:32:06;;;;;;;26.33;16.17;;;;;;;7.32;67.60;98528.11;125070;1127;22542;-80
2021/01/22 08:34:37;;;;;;;25.50;16.40;;;;;;;7.37;67.27;98530.18;125385;1127;22492;-79
2021/01/22 08:37:08;;;;;;;22.42;13.75;;;;;;;7.45;67.54;98541.34;125410;1129;22459;-78
2021/01/22 08:39:55;;;;;;;27.20;16.83;;;;;;;7.48;67.08;98534.89;125430;1131;22413;-78
2021/01/22 08:42:23;;;;;;;23.45;14.15;;;;;;;7.47;66.84;98534.09;125338;1127;23463;-78
2021/01/22 08:45:04;;;;;;;23.50;13.93;;;;;;;7.53;66.85;98527.23;125349;1127;22959;-77
2021/01/22 08:47:41;;;;;;;23.95;14.63;;;;;;;7.54;66.69;98524.42;125431;1127;22462;-78
2021/01/22 08:50:16;;;;;;;26.30;16.55;;;;;;;7.55;66.69;98530.48;125364;1127;22459;-78
2021/01/22 08:52:45;;;;;;;24.70;15.68;;;;;;;7.54;66.88;98534.94;125405;1129;22457;-78
2021/01/22 08:55:21;;;;;;;27.02;14.95;;;;;;;7.53;66.29;98528.06;125434;1127;22470;-78
2021/01/22 08:58:09;;;;;;;28.67;15.53;;;;;;;7.51;66.63;98532.69;125494;1128;22494;-78
2021/01/22 09:00:39;;;;;;;25.85;17.25;;;;;;;7.51;66.98;98537.14;125445;1127;22465;-80
2021/01/22 09:03:23;;;;;;;23.70;15.48;;;;;;;7.53;66.95;98528.06;125323;1127;22453;-80
2021/01/22 09:05:54;;;;;;;28.00;16.85;;;;;;;7.59;66.70;98533.54;125522;1127;24549;-81
2021/01/22 09:08:23;;;;;;;28.50;18.65;;;;;;;7.63;66.75;98535.61;125442;1127;22573;-81
2021/01/22 09:10:52;;;;;;;23.80;16.52;;;;;;;7.66;66.40;98529.13;125408;1127;22443;-78
2021/01/22 09:13:26;;;;;;;31.52;24.30;;;;;;;7.70;66.56;98528.57;125417;1127;24361;-79
2021/01/22 09:16:07;;;;;;;29.42;19.40;;;;;;;7.74;66.69;98514.03;125453;1130;22442;-79
2021/01/22 09:18:35;;;;;;;31.77;20.10;;;;;;;7.80;66.34;98517.70;125464;1126;22469;-79
2021/01/22 09:21:06;;;;;;;30.70;17.80;;;;;;;7.87;66.53;98523.80;125390;1129;22435;-79
2021/01/22 09:23:38;;;;;;;24.60;16.25;;;;;;;7.87;65.88;98523.80;125429;1129;22457;-79
2021/01/22 09:26:06;;;;;;;35.60;20.70;;;;;;;7.93;65.99;98519.56;125384;1127;22462;-79
2021/01/22 09:28:34;;;;;;;28.32;20.60;;;;;;;7.99;65.72;98513.52;125407;1130;22445;-79
2021/01/22 09:31:03;;;;;;;25.30;17.65;;;;;;;8.01;66.18;98512.33;125027;1126;23385;-79
2021/01/22 09:33:31;;;;;;;26.60;16.27;;;;;;;8.07;65.87;98509.94;125366;1128;22449;-79
2021/01/22 09:36:00;;;;;;;31.62;21.05;;;;;;;8.11;65.63;98517.23;125415;1126;22567;-79
2021/01/22 09:38:29;;;;;;;27.42;19.73;;;;;;;8.18;65.65;98517.25;125371;1127;22547;-79
2021/01/22 09:40:57;;;;;;;31.60;20.88;;;;;;;8.27;65.60;98515.27;125436;1127;24630;-80
2021/01/22 09:43:25;;;;;;;25.32;18.07;;;;;;;8.38;65.39;98512.08;125387;1130;22503;-80
2021/01/22 09:45:56;;;;;;;25.68;16.80;;;;;;;8.44;64.89;98529.71;125406;1127;22537;-80
2021/01/22 09:48:25;;;;;;;31.50;22.25;;;;;;;8.48;64.79;98512.51;125428;1127;22447;-79
2021/01/22 09:50:53;;;;;;;28.17;19.27;;;;;;;8.56;64.69;98511.50;125431;1126;24562;-80
2021/01/22 09:53:21;;;;;;;31.55;19.05;;;;;;;8.66;64.85;98514.55;125396;1126;22457;-80
2021/01/22 09:55:51;;;;;;;36.95;17.45;;;;;;;8.76;64.66;98511.53;125390;1130;22815;-81
2021/01/22 09:58:20;;;;;;;28.05;18.55;;;;;;;8.84;64.55;98516.63;125349;1129;22446;-80
2021/01/22 10:00:48;;;;;;;32.87;21.13;;;;;;;8.87;63.89;98503.06;125313;1129;22438;-79
2021/01/22 10:03:16;;;;;;;31.50;21.37;;;;;;;8.93;63.93;98503.06;125406;1129;22440;-80
2021/01/22 10:05:45;;;;;;;30.40;20.77;;;;;;;9.05;63.77;98500.62;125176;1131;22478;-80
2021/01/22 10:08:15;;;;;;;40.03;25.25;;;;;;;9.25;63.99;98502.44;125389;1126;22440;-80
2021/01/22 10:10:44;;;;;;;27.77;21.33;;;;;;;9.49;63.39;98500.97;125355;1127;22447;-80
2021/01/22 10:13:14;;;;;;;28.12;18.15;;;;;;;9.75;62.99;98498.27;125405;1129;22438;-80
2021/01/22 10:15:42;;;;;;;27.15;17.73;;;;;;;9.96;62.30;98509.56;125382;1127;22898;-80
2021/01/22 10:18:13;;;;;;;23.05;17.27;;;;;;;10.10;62.00;98513.78;125376;1131;22490;-80
2021/01/22 10:20:41;;;;;;;26.90;19.53;;;;;;;10.15;61.10;98508.67;125432;1129;22757;-82
2021/01/22 10:23:10;;;;;;;29.70;21.52;;;;;;;10.30;61.03;98511.89;125389;1127;23382;-81
2021/01/22 10:25:38;;;;;;;30.73;22.07;;;;;;;10.51;60.86;98515.23;125512;1127;24555;-81
2021/01/22 10:28:06;;;;;;;30.95;23.38;;;;;;;10.68;60.31;98518.17;125571;1127;22460;-80
2021/01/22 10:30:34;;;;;;;29.85;20.62;;;;;;;10.81;60.03;98512.80;125394;1130;22548;-80
2021/01/22 10:33:03;;;;;;;40.75;24.65;;;;;;;11.06;60.11;98515.45;125305;1128;22450;-80
2021/01/22 10:35:35;;;;;;;30.02;19.45;;;;;;;11.25;59.31;98514.48;125404;1127;22457;-79
2021/01/22 10:38:05;;;;;;;24.80;15.60;;;;;;;11.57;58.89;98519.69;125406;1127;22460;-78
2021/01/22 10:40:33;;;;;;;24.65;16.02;;;;;;;11.78;57.99;98518.44;125368;1126;23387;-80
2021/01/22 10:43:03;;;;;;;17.92;11.88;;;;;;;11.91;57.49;98515.68;125374;1127;22443;-77
2021/01/22 10:45:32;;;;;;;24.47;13.85;;;;;;;11.94;56.35;98517.89;125340;1127;22451;-78
2021/01/22 10:48:00;;;;;;;21.85;14.40;;;;;;;12.20;56.89;98518.61;125364;1127;22994;-81
2021/01/22 10:50:29;;;;;;;25.82;15.93;;;;;;;12.43;56.51;98523.20;125363;1127;22545;-80
2021/01/22 10:52:58;;;;;;;25.50;15.40;;;;;;;12.70;56.48;98518.34;125393;1127;22443;-79
2021/01/22 10:55:26;;;;;;;35.40;23.50;;;;;;;13.11;56.29;98516.69;124977;1127;24558;-78
2021/01/22 10:57:54;;;;;;;17.27;12.10;;;;;;;13.49;54.87;98504.84;125453;1127;23131;-81
2021/01/22 11:00:23;;;;;;;18.73;13.50;;;;;;;13.92;54.24;98501.79;125515;1127;22468;-81
2021/01/22 11:02:51;;;;;;;18.30;12.98;;;;;;;14.50;53.99;98506.14;125438;1127;24565;-81
2021/01/22 11:05:19;;;;;;;22.85;15.23;;;;;;;15.34;53.35;98510.70;125686;1126;22463;-80
2021/01/22 11:07:48;;;;;;;21.40;15.90;;;;;;;16.15;52.13;98505.66;125414;1129;22427;-81
2021/01/22 11:10:16;;;;;;;15.30;12.30;;;;;;;16.84;49.51;98502.41;125454;1127;22538;-81
2021/01/22 11:12:44;;;;;;;17.75;12.70;;;;;;;17.12;47.70;98497.81;125466;1127;25027;-81
2021/01/22 11:15:13;;;;;;;13.80;10.25;;;;;;;17.45;47.44;98483.36;125441;1129;22523;-82
2021/01/22 11:17:42;;;;;;;15.65;9.50;;;;;;;17.60;45.74;98490.67;125438;1127;22444;-81
2021/01/22 11:20:11;;;;;;;16.73;11.22;;;;;;;18.00;44.27;98490.09;125636;1127;22640;-81
2021/01/22 11:22:41;;;;;;;14.90;10.23;;;;;;;18.56;43.60;98487.56;125461;1127;22439;-80
2021/01/22 11:25:09;;;;;;;16.27;10.05;;;;;;;17.92;41.39;98487.89;125450;1127;22512;-79
2021/01/22 11:27:37;;;;;;;18.23;11.00;;;;;;;17.48;42.11;98496.20;125374;1127;22503;-79
2021/01/22 11:30:07;;;;;;;21.40;14.77;;;;;;;17.02;43.64;98492.41;125351;1127;22451;-77
2021/01/22 11:32:36;;;;;;;18.98;13.75;;;;;;;16.71;43.88;98490.25;125378;1127;22466;-77
2021/01/22 11:35:09;;;;;;;18.92;12.07;;;;;;;16.16;43.08;98490.48;125397;1130;22518;-78
2021/01/22 11:37:38;;;;;;;14.38;10.88;;;;;;;15.60;43.48;98484.46;125328;1129;22490;-78
2021/01/22 11:40:08;;;;;;;16.93;10.40;;;;;;;15.13;44.10;98487.48;125409;1127;22514;-78